sensor_id;sensor_type;location;lat;lon;timestamp;temperature;humidity
3005;DHT22;1512;51.486;6.610;2022-09-30T00:03:38;7.90;99.90
3005;DHT22;1512;51.486;6.610;2022-09-30T00:07:47;7.90;99.90
3005;DHT22;1512;51.486;6.610;2022-09-30T00:11:56;7.80;99.90
3005;DHT22;1512;51.486;6.610;2022-09-30T00:16:07;7.80;99.90
3005;DHT22;1512;51.486;6.610;2022-09-30T00:20:15;7.80;99.90
3005;DHT22;1512;51.486;6.610;2022-09-30T00:24:44;7.80;99.90
3005;DHT22;1512;51.486;6.610;2022-09-30T00:28:55;7.80;99.90
3005;DHT22;1512;51.486;6.610;2022-09-30T00:33:04;7.70;99.90
3005;DHT22;1512;51.486;6.610;2022-09-30T00:37:13;7.70;99.90
3005;DHT22;1512;51.486;6.610;2022-09-30T00:41:23;7.70;99.90
3005;DHT22;1512;51.486;6.610;2022-09-30T00:45:32;7.70;99.90
3005;DHT22;1512;51.486;6.610;2022-09-30T00:49:41;7.70;99.90
3005;DHT22;1512;51.486;6.610;2022-09-30T00:54:09;7.70;99.90
3005;DHT22;1512;51.486;6.610;2022-09-30T00:58:35;7.70;99.90
3005;DHT22;1512;51.486;6.610;2022-09-30T01:02:45;7.60;99.90
3005;DHT22;1512;51.486;6.610;2022-09-30T01:06:54;7.50;99.90
3005;DHT22;1512;51.486;6.610;2022-09-30T01:11:02;7.50;99.90
3005;DHT22;1512;51.486;6.610;2022-09-30T01:15:13;7.50;99.90
3005;DHT22;1512;51.486;6.610;2022-09-30T01:33:28;7.40;99.90
3005;DHT22;1512;51.486;6.610;2022-09-30T01:47:07;7.30;99.90
3005;DHT22;1512;51.486;6.610;2022-09-30T01:51:22;7.30;99.90
3005;DHT22;1512;51.486;6.610;2022-09-30T01:55:37;7.20;99.90
3005;DHT22;1512;51.486;6.610;2022-09-30T02:00:07;7.20;99.90
3005;DHT22;1512;51.486;6.610;2022-09-30T02:04:13;7.20;99.90
3005;DHT22;1512;51.486;6.610;2022-09-30T02:12:54;7.20;99.90
3005;DHT22;1512;51.486;6.610;2022-09-30T02:17:15;7.20;99.90
3005;DHT22;1512;51.486;6.610;2022-09-30T02:21:25;7.20;99.90
3005;DHT22;1512;51.486;6.610;2022-09-30T02:25:41;7.20;99.90
3005;DHT22;1512;51.486;6.610;2022-09-30T02:29:54;7.20;99.90
3005;DHT22;1512;51.486;6.610;2022-09-30T02:34:18;7.20;99.90
3005;DHT22;1512;51.486;6.610;2022-09-30T02:38:32;7.20;99.90
3005;DHT22;1512;51.486;6.610;2022-09-30T02:42:43;7.20;99.90
3005;DHT22;1512;51.486;6.610;2022-09-30T02:56:23;7.10;99.90
3005;DHT22;1512;51.486;6.610;2022-09-30T03:00:30;7.10;99.90
3005;DHT22;1512;51.486;6.610;2022-09-30T03:04:40;7.00;99.90
3005;DHT22;1512;51.486;6.610;2022-09-30T03:08:51;7.00;99.90
3005;DHT22;1512;51.486;6.610;2022-09-30T03:26:38;7.00;99.90
3005;DHT22;1512;51.486;6.610;2022-09-30T03:36:01;6.90;99.90
3005;DHT22;1512;51.486;6.610;2022-09-30T03:40:16;6.90;99.90
3005;DHT22;1512;51.486;6.610;2022-09-30T03:44:28;6.90;99.90
3005;DHT22;1512;51.486;6.610;2022-09-30T03:48:38;6.80;99.90
3005;DHT22;1512;51.486;6.610;2022-09-30T03:52:49;6.80;99.90
3005;DHT22;1512;51.486;6.610;2022-09-30T03:56:58;6.80;99.90
3005;DHT22;1512;51.486;6.610;2022-09-30T04:01:16;6.80;99.90
3005;DHT22;1512;51.486;6.610;2022-09-30T04:05:27;6.80;99.90
3005;DHT22;1512;51.486;6.610;2022-09-30T04:09:36;6.80;99.90
3005;DHT22;1512;51.486;6.610;2022-09-30T04:13:45;6.80;99.90
3005;DHT22;1512;51.486;6.610;2022-09-30T04:18:13;6.80;99.90
3005;DHT22;1512;51.486;6.610;2022-09-30T04:22:22;6.80;99.90
3005;DHT22;1512;51.486;6.610;2022-09-30T04:26:51;6.80;99.90
3005;DHT22;1512;51.486;6.610;2022-09-30T04:31:01;6.80;99.90
3005;DHT22;1512;51.486;6.610;2022-09-30T04:35:12;6.80;99.90
3005;DHT22;1512;51.486;6.610;2022-09-30T04:39:22;6.70;99.90
3005;DHT22;1512;51.486;6.610;2022-09-30T04:43:31;6.70;99.90
3005;DHT22;1512;51.486;6.610;2022-09-30T04:47:43;6.70;99.90
3005;DHT22;1512;51.486;6.610;2022-09-30T04:51:52;6.70;99.90
3005;DHT22;1512;51.486;6.610;2022-09-30T04:56:00;6.70;99.90
3005;DHT22;1512;51.486;6.610;2022-09-30T05:00:10;6.70;99.90
3005;DHT22;1512;51.486;6.610;2022-09-30T05:04:19;6.70;99.90
3005;DHT22;1512;51.486;6.610;2022-09-30T05:08:28;6.60;99.90
3005;DHT22;1512;51.486;6.610;2022-09-30T05:12:39;6.60;99.90
3005;DHT22;1512;51.486;6.610;2022-09-30T05:16:48;6.60;99.90
3005;DHT22;1512;51.486;6.610;2022-09-30T05:20:57;6.60;99.90
3005;DHT22;1512;51.486;6.610;2022-09-30T05:25:06;6.60;99.90
3005;DHT22;1512;51.486;6.610;2022-09-30T05:29:15;6.60;99.90
3005;DHT22;1512;51.486;6.610;2022-09-30T05:33:23;6.60;99.90
3005;DHT22;1512;51.486;6.610;2022-09-30T05:42:01;6.60;99.90
3005;DHT22;1512;51.486;6.610;2022-09-30T05:46:11;6.60;99.90
3005;DHT22;1512;51.486;6.610;2022-09-30T05:50:41;6.60;99.90
3005;DHT22;1512;51.486;6.610;2022-09-30T05:54:49;6.60;99.90
3005;DHT22;1512;51.486;6.610;2022-09-30T05:58:58;6.60;99.90
3005;DHT22;1512;51.486;6.610;2022-09-30T06:03:06;6.50;99.90
3005;DHT22;1512;51.486;6.610;2022-09-30T06:07:16;6.50;99.90
3005;DHT22;1512;51.486;6.610;2022-09-30T06:11:24;6.50;99.90
3005;DHT22;1512;51.486;6.610;2022-09-30T06:15:33;6.50;99.90
3005;DHT22;1512;51.486;6.610;2022-09-30T06:19:44;6.50;99.90
3005;DHT22;1512;51.486;6.610;2022-09-30T06:23:52;6.60;99.90
3005;DHT22;1512;51.486;6.610;2022-09-30T06:28:01;6.60;99.90
3005;DHT22;1512;51.486;6.610;2022-09-30T06:32:10;6.60;99.90
3005;DHT22;1512;51.486;6.610;2022-09-30T06:36:19;6.70;99.90
3005;DHT22;1512;51.486;6.610;2022-09-30T06:40:28;6.70;99.90
3005;DHT22;1512;51.486;6.610;2022-09-30T06:44:36;6.80;99.90
3005;DHT22;1512;51.486;6.610;2022-09-30T06:48:52;6.90;99.90
3005;DHT22;1512;51.486;6.610;2022-09-30T06:53:03;7.00;99.90
3005;DHT22;1512;51.486;6.610;2022-09-30T06:57:13;7.00;99.90
3005;DHT22;1512;51.486;6.610;2022-09-30T07:01:22;7.10;99.90
3005;DHT22;1512;51.486;6.610;2022-09-30T07:05:35;7.20;99.90
3005;DHT22;1512;51.486;6.610;2022-09-30T07:09:48;7.50;99.90
3005;DHT22;1512;51.486;6.610;2022-09-30T07:13:57;7.50;99.90
3005;DHT22;1512;51.486;6.610;2022-09-30T07:18:05;7.50;99.90
3005;DHT22;1512;51.486;6.610;2022-09-30T07:22:15;7.60;99.90
3005;DHT22;1512;51.486;6.610;2022-09-30T07:26:40;7.70;99.90
3005;DHT22;1512;51.486;6.610;2022-09-30T07:30:48;7.70;99.90
3005;DHT22;1512;51.486;6.610;2022-09-30T07:35:00;7.80;99.90
3005;DHT22;1512;51.486;6.610;2022-09-30T07:39:09;7.90;99.90
3005;DHT22;1512;51.486;6.610;2022-09-30T07:43:18;8.10;99.90
3005;DHT22;1512;51.486;6.610;2022-09-30T07:47:28;8.20;99.90
3005;DHT22;1512;51.486;6.610;2022-09-30T07:51:39;8.30;99.90
3005;DHT22;1512;51.486;6.610;2022-09-30T07:56:10;8.40;99.90
3005;DHT22;1512;51.486;6.610;2022-09-30T08:00:19;8.50;99.90
3005;DHT22;1512;51.486;6.610;2022-09-30T08:04:31;8.60;99.90
3005;DHT22;1512;51.486;6.610;2022-09-30T08:08:39;8.70;99.90
3005;DHT22;1512;51.486;6.610;2022-09-30T08:13:09;8.80;99.90
3005;DHT22;1512;51.486;6.610;2022-09-30T08:17:20;8.90;99.90
3005;DHT22;1512;51.486;6.610;2022-09-30T08:21:28;9.10;99.90
3005;DHT22;1512;51.486;6.610;2022-09-30T08:25:39;9.20;99.90
3005;DHT22;1512;51.486;6.610;2022-09-30T08:29:48;9.30;99.90
3005;DHT22;1512;51.486;6.610;2022-09-30T08:33:58;9.40;99.90
3005;DHT22;1512;51.486;6.610;2022-09-30T08:38:09;9.50;99.90
3005;DHT22;1512;51.486;6.610;2022-09-30T08:51:34;9.90;99.90
3005;DHT22;1512;51.486;6.610;2022-09-30T08:55:44;10.10;99.90
3005;DHT22;1512;51.486;6.610;2022-09-30T08:59:59;10.20;99.90
3005;DHT22;1512;51.486;6.610;2022-09-30T09:04:10;10.30;99.90
3005;DHT22;1512;51.486;6.610;2022-09-30T09:13:27;10.60;99.90
3005;DHT22;1512;51.486;6.610;2022-09-30T09:21:58;10.90;99.90
3005;DHT22;1512;51.486;6.610;2022-09-30T09:26:11;11.20;99.90
3005;DHT22;1512;51.486;6.610;2022-09-30T09:30:22;11.30;99.90
3005;DHT22;1512;51.486;6.610;2022-09-30T09:34:31;11.40;99.90
3005;DHT22;1512;51.486;6.610;2022-09-30T09:39:09;11.60;99.90
3005;DHT22;1512;51.486;6.610;2022-09-30T09:47:42;11.90;99.90
3005;DHT22;1512;51.486;6.610;2022-09-30T09:56:14;12.20;99.90
3005;DHT22;1512;51.486;6.610;2022-09-30T10:00:26;12.40;99.90
3005;DHT22;1512;51.486;6.610;2022-09-30T10:04:54;12.60;99.90
3005;DHT22;1512;51.486;6.610;2022-09-30T10:09:34;12.70;99.90
3005;DHT22;1512;51.486;6.610;2022-09-30T10:13:44;12.90;99.90
3005;DHT22;1512;51.486;6.610;2022-09-30T10:17:56;13.10;99.90
3005;DHT22;1512;51.486;6.610;2022-09-30T10:26:23;13.40;99.90
3005;DHT22;1512;51.486;6.610;2022-09-30T10:30:41;13.70;99.90
3005;DHT22;1512;51.486;6.610;2022-09-30T10:35:15;13.90;99.90
3005;DHT22;1512;51.486;6.610;2022-09-30T10:39:29;14.00;99.90
3005;DHT22;1512;51.486;6.610;2022-09-30T10:43:46;14.20;99.90
3005;DHT22;1512;51.486;6.610;2022-09-30T10:47:56;14.30;99.90
3005;DHT22;1512;51.486;6.610;2022-09-30T10:52:05;14.40;99.90
3005;DHT22;1512;51.486;6.610;2022-09-30T10:56:33;14.60;99.90
3005;DHT22;1512;51.486;6.610;2022-09-30T11:00:44;14.70;99.90
3005;DHT22;1512;51.486;6.610;2022-09-30T11:18:03;15.20;99.90
3005;DHT22;1512;51.486;6.610;2022-09-30T11:35:39;15.40;99.90
3005;DHT22;1512;51.486;6.610;2022-09-30T11:39:53;15.50;99.90
3005;DHT22;1512;51.486;6.610;2022-09-30T11:53:10;15.90;99.90
3005;DHT22;1512;51.486;6.610;2022-09-30T11:57:31;15.60;99.90
3005;DHT22;1512;51.486;6.610;2022-09-30T12:01:46;15.60;99.90
3005;DHT22;1512;51.486;6.610;2022-09-30T12:06:02;15.80;99.90
3005;DHT22;1512;51.486;6.610;2022-09-30T12:10:27;15.90;99.90
3005;DHT22;1512;51.486;6.610;2022-09-30T12:14:40;16.00;99.90
3005;DHT22;1512;51.486;6.610;2022-09-30T12:18:56;16.10;99.90
3005;DHT22;1512;51.486;6.610;2022-09-30T12:23:21;16.10;99.90
3005;DHT22;1512;51.486;6.610;2022-09-30T12:27:32;16.10;99.90
3005;DHT22;1512;51.486;6.610;2022-09-30T12:31:58;16.30;99.90
3005;DHT22;1512;51.486;6.610;2022-09-30T12:49:14;16.80;99.90
3005;DHT22;1512;51.486;6.610;2022-09-30T12:53:45;16.70;99.90
3005;DHT22;1512;51.486;6.610;2022-09-30T12:58:01;16.60;99.90
3005;DHT22;1512;51.486;6.610;2022-09-30T13:02:20;16.70;99.90
3005;DHT22;1512;51.486;6.610;2022-09-30T13:06:21;16.80;99.90
3005;DHT22;1512;51.486;6.610;2022-09-30T13:14:48;16.90;99.90
3005;DHT22;1512;51.486;6.610;2022-09-30T13:19:00;17.00;99.90
3005;DHT22;1512;51.486;6.610;2022-09-30T13:23:10;16.90;99.90
3005;DHT22;1512;51.486;6.610;2022-09-30T13:27:32;16.90;99.90
3005;DHT22;1512;51.486;6.610;2022-09-30T13:36:06;16.90;99.90
3005;DHT22;1512;51.486;6.610;2022-09-30T13:40:19;16.90;99.90
3005;DHT22;1512;51.486;6.610;2022-09-30T13:44:38;16.80;99.90
3005;DHT22;1512;51.486;6.610;2022-09-30T13:53:38;16.70;99.90
3005;DHT22;1512;51.486;6.610;2022-09-30T14:24:26;17.00;99.90
3005;DHT22;1512;51.486;6.610;2022-09-30T14:28:38;17.00;99.90
3005;DHT22;1512;51.486;6.610;2022-09-30T14:33:23;17.00;99.90
3005;DHT22;1512;51.486;6.610;2022-09-30T14:37:30;16.70;99.90
3005;DHT22;1512;51.486;6.610;2022-09-30T14:41:52;16.50;99.90
3005;DHT22;1512;51.486;6.610;2022-09-30T14:50:51;16.30;99.90
3005;DHT22;1512;51.486;6.610;2022-09-30T14:55:00;16.20;99.90
3005;DHT22;1512;51.486;6.610;2022-09-30T14:59:16;16.10;99.90
3005;DHT22;1512;51.486;6.610;2022-09-30T15:03:26;16.00;99.90
3005;DHT22;1512;51.486;6.610;2022-09-30T15:07:35;16.00;99.90
3005;DHT22;1512;51.486;6.610;2022-09-30T15:11:45;16.00;99.90
3005;DHT22;1512;51.486;6.610;2022-09-30T15:15:55;16.00;99.90
3005;DHT22;1512;51.486;6.610;2022-09-30T15:20:30;16.00;99.90
3005;DHT22;1512;51.486;6.610;2022-09-30T15:24:40;16.00;99.90
3005;DHT22;1512;51.486;6.610;2022-09-30T15:28:49;16.00;99.90
3005;DHT22;1512;51.486;6.610;2022-09-30T15:33:00;16.00;99.90
3005;DHT22;1512;51.486;6.610;2022-09-30T15:37:21;16.00;99.90
3005;DHT22;1512;51.486;6.610;2022-09-30T15:41:38;15.90;99.90
3005;DHT22;1512;51.486;6.610;2022-09-30T15:45:49;15.90;99.90
3005;DHT22;1512;51.486;6.610;2022-09-30T15:49:58;15.80;99.90
3005;DHT22;1512;51.486;6.610;2022-09-30T15:58:39;15.70;99.90
3005;DHT22;1512;51.486;6.610;2022-09-30T16:02:48;15.60;99.90
3005;DHT22;1512;51.486;6.610;2022-09-30T16:07:04;15.40;99.90
3005;DHT22;1512;51.486;6.610;2022-09-30T16:11:26;15.40;99.90
3005;DHT22;1512;51.486;6.610;2022-09-30T16:15:30;15.30;99.90
3005;DHT22;1512;51.486;6.610;2022-09-30T16:19:40;15.20;99.90
3005;DHT22;1512;51.486;6.610;2022-09-30T16:23:51;15.20;99.90
3005;DHT22;1512;51.486;6.610;2022-09-30T16:28:07;15.20;99.90
3005;DHT22;1512;51.486;6.610;2022-09-30T16:32:13;15.10;99.90
3005;DHT22;1512;51.486;6.610;2022-09-30T16:36:22;15.00;99.90
3005;DHT22;1512;51.486;6.610;2022-09-30T16:40:32;14.90;99.90
3005;DHT22;1512;51.486;6.610;2022-09-30T16:44:43;14.90;99.90
3005;DHT22;1512;51.486;6.610;2022-09-30T16:48:51;14.70;99.90
3005;DHT22;1512;51.486;6.610;2022-09-30T16:53:00;14.70;99.90
3005;DHT22;1512;51.486;6.610;2022-09-30T16:57:11;14.60;99.90
3005;DHT22;1512;51.486;6.610;2022-09-30T17:01:22;14.50;99.90
3005;DHT22;1512;51.486;6.610;2022-09-30T17:05:32;14.30;99.90
3005;DHT22;1512;51.486;6.610;2022-09-30T17:09:40;14.20;99.90
3005;DHT22;1512;51.486;6.610;2022-09-30T17:13:49;14.10;99.90
3005;DHT22;1512;51.486;6.610;2022-09-30T17:17:58;14.00;99.90
3005;DHT22;1512;51.486;6.610;2022-09-30T17:22:09;13.90;99.90
3005;DHT22;1512;51.486;6.610;2022-09-30T17:26:18;13.80;99.90
3005;DHT22;1512;51.486;6.610;2022-09-30T17:30:26;13.70;99.90
3005;DHT22;1512;51.486;6.610;2022-09-30T17:34:35;13.60;99.90
3005;DHT22;1512;51.486;6.610;2022-09-30T17:38:43;13.50;99.90
3005;DHT22;1512;51.486;6.610;2022-09-30T17:42:53;13.40;99.90
3005;DHT22;1512;51.486;6.610;2022-09-30T17:47:17;13.30;99.90
3005;DHT22;1512;51.486;6.610;2022-09-30T17:51:28;13.20;99.90
3005;DHT22;1512;51.486;6.610;2022-09-30T17:55:38;13.20;99.90
3005;DHT22;1512;51.486;6.610;2022-09-30T18:14:20;12.80;99.90
3005;DHT22;1512;51.486;6.610;2022-09-30T18:18:30;12.70;99.90
3005;DHT22;1512;51.486;6.610;2022-09-30T18:22:39;12.60;99.90
3005;DHT22;1512;51.486;6.610;2022-09-30T18:26:47;12.50;99.90
3005;DHT22;1512;51.486;6.610;2022-09-30T18:30:56;12.50;99.90
3005;DHT22;1512;51.486;6.610;2022-09-30T18:35:07;12.40;99.90
3005;DHT22;1512;51.486;6.610;2022-09-30T18:39:17;12.40;99.90
3005;DHT22;1512;51.486;6.610;2022-09-30T18:43:26;12.30;99.90
3005;DHT22;1512;51.486;6.610;2022-09-30T18:47:35;12.30;99.90
3005;DHT22;1512;51.486;6.610;2022-09-30T18:51:43;12.20;99.90
3005;DHT22;1512;51.486;6.610;2022-09-30T18:55:52;12.20;99.90
3005;DHT22;1512;51.486;6.610;2022-09-30T19:00:01;12.20;99.90
3005;DHT22;1512;51.486;6.610;2022-09-30T19:04:10;12.10;99.90
3005;DHT22;1512;51.486;6.610;2022-09-30T19:08:19;12.10;99.90
3005;DHT22;1512;51.486;6.610;2022-09-30T19:12:38;12.00;99.90
3005;DHT22;1512;51.486;6.610;2022-09-30T19:16:46;12.00;99.90
3005;DHT22;1512;51.486;6.610;2022-09-30T19:20:55;12.00;99.90
3005;DHT22;1512;51.486;6.610;2022-09-30T19:25:11;11.90;99.90
3005;DHT22;1512;51.486;6.610;2022-09-30T19:29:16;11.90;99.90
3005;DHT22;1512;51.486;6.610;2022-09-30T19:33:25;11.90;99.90
3005;DHT22;1512;51.486;6.610;2022-09-30T19:37:34;11.90;99.90
3005;DHT22;1512;51.486;6.610;2022-09-30T19:41:42;11.90;99.90
3005;DHT22;1512;51.486;6.610;2022-09-30T19:45:58;11.90;99.90
3005;DHT22;1512;51.486;6.610;2022-09-30T19:50:08;11.90;99.90
3005;DHT22;1512;51.486;6.610;2022-09-30T19:54:16;11.90;99.90
3005;DHT22;1512;51.486;6.610;2022-09-30T19:58:33;11.90;99.90
3005;DHT22;1512;51.486;6.610;2022-09-30T20:02:42;11.90;99.90
3005;DHT22;1512;51.486;6.610;2022-09-30T20:06:51;12.00;99.90
3005;DHT22;1512;51.486;6.610;2022-09-30T20:11:02;12.00;99.90
3005;DHT22;1512;51.486;6.610;2022-09-30T20:15:11;12.00;99.90
3005;DHT22;1512;51.486;6.610;2022-09-30T20:19:24;12.00;99.90
3005;DHT22;1512;51.486;6.610;2022-09-30T20:23:34;12.00;99.90
3005;DHT22;1512;51.486;6.610;2022-09-30T20:27:45;12.10;99.90
3005;DHT22;1512;51.486;6.610;2022-09-30T20:31:55;12.10;99.90
3005;DHT22;1512;51.486;6.610;2022-09-30T20:36:06;12.20;99.90
3005;DHT22;1512;51.486;6.610;2022-09-30T20:40:15;12.20;99.90
3005;DHT22;1512;51.486;6.610;2022-09-30T20:44:23;12.30;99.90
3005;DHT22;1512;51.486;6.610;2022-09-30T20:48:34;12.30;99.90
3005;DHT22;1512;51.486;6.610;2022-09-30T20:52:43;12.30;99.90
3005;DHT22;1512;51.486;6.610;2022-09-30T20:56:51;12.40;99.90
3005;DHT22;1512;51.486;6.610;2022-09-30T21:01:10;12.40;99.90
3005;DHT22;1512;51.486;6.610;2022-09-30T21:05:20;12.40;99.90
3005;DHT22;1512;51.486;6.610;2022-09-30T21:09:29;12.40;99.90
3005;DHT22;1512;51.486;6.610;2022-09-30T21:13:43;12.40;99.90
3005;DHT22;1512;51.486;6.610;2022-09-30T21:17:53;12.40;99.90
3005;DHT22;1512;51.486;6.610;2022-09-30T21:22:01;12.40;99.90
3005;DHT22;1512;51.486;6.610;2022-09-30T21:26:12;12.30;99.90
3005;DHT22;1512;51.486;6.610;2022-09-30T21:30:22;12.40;99.90
3005;DHT22;1512;51.486;6.610;2022-09-30T21:34:30;12.30;99.90
3005;DHT22;1512;51.486;6.610;2022-09-30T21:38:40;12.40;99.90
3005;DHT22;1512;51.486;6.610;2022-09-30T21:42:49;12.40;99.90
3005;DHT22;1512;51.486;6.610;2022-09-30T21:46:57;12.40;99.90
3005;DHT22;1512;51.486;6.610;2022-09-30T21:51:07;12.40;99.90
3005;DHT22;1512;51.486;6.610;2022-09-30T21:55:16;12.40;99.90
3005;DHT22;1512;51.486;6.610;2022-09-30T21:59:25;12.40;99.90
3005;DHT22;1512;51.486;6.610;2022-09-30T22:03:35;12.40;99.90
3005;DHT22;1512;51.486;6.610;2022-09-30T22:07:47;12.40;99.90
3005;DHT22;1512;51.486;6.610;2022-09-30T22:11:56;12.50;99.90
3005;DHT22;1512;51.486;6.610;2022-09-30T22:16:05;12.50;99.90
3005;DHT22;1512;51.486;6.610;2022-09-30T22:20:14;12.50;99.90
3005;DHT22;1512;51.486;6.610;2022-09-30T22:24:22;12.50;99.90
3005;DHT22;1512;51.486;6.610;2022-09-30T22:28:31;12.50;99.90
3005;DHT22;1512;51.486;6.610;2022-09-30T22:32:40;12.50;99.90
3005;DHT22;1512;51.486;6.610;2022-09-30T22:36:48;12.50;99.90
3005;DHT22;1512;51.486;6.610;2022-09-30T22:41:16;12.50;99.90
3005;DHT22;1512;51.486;6.610;2022-09-30T22:45:24;12.50;99.90
3005;DHT22;1512;51.486;6.610;2022-09-30T22:49:33;12.50;99.90
3005;DHT22;1512;51.486;6.610;2022-09-30T22:53:42;12.50;99.90
3005;DHT22;1512;51.486;6.610;2022-09-30T22:57:51;12.50;99.90
3005;DHT22;1512;51.486;6.610;2022-09-30T23:01:59;12.50;99.90
3005;DHT22;1512;51.486;6.610;2022-09-30T23:06:08;12.40;99.90
3005;DHT22;1512;51.486;6.610;2022-09-30T23:10:17;12.40;99.90
3005;DHT22;1512;51.486;6.610;2022-09-30T23:14:25;12.40;99.90
3005;DHT22;1512;51.486;6.610;2022-09-30T23:18:34;12.30;99.90
3005;DHT22;1512;51.486;6.610;2022-09-30T23:22:43;12.40;99.90
3005;DHT22;1512;51.486;6.610;2022-09-30T23:26:53;12.40;99.90
3005;DHT22;1512;51.486;6.610;2022-09-30T23:31:04;12.40;99.90
3005;DHT22;1512;51.486;6.610;2022-09-30T23:35:15;12.40;99.90
3005;DHT22;1512;51.486;6.610;2022-09-30T23:39:23;12.40;99.90
3005;DHT22;1512;51.486;6.610;2022-09-30T23:43:32;12.40;99.90
3005;DHT22;1512;51.486;6.610;2022-09-30T23:47:45;12.50;99.90
3005;DHT22;1512;51.486;6.610;2022-09-30T23:51:53;12.50;99.90
3005;DHT22;1512;51.486;6.610;2022-09-30T23:56:11;12.40;99.90
